首页
METAR-TAF:

METAR-TAF

机场 :

阿德萊德機場

阿德莱德, 澳大利亚

纬度: 34-56S, 经度: 138-31E, 海拔: 6米

当前天气观测

该预报发布于31分钟前的21:00 UTC
风速1节,风向东转东北
温度 5°C
湿度 93%
气压 1027 hPa
能见度10公里或以上
1500米以下无云,无积雨云

METAR: YPAD 182100Z 07001KT CAVOK 05/04 Q1027 NOSIG

时间: 07:01 (21:31 UTC)

预报

该预报发布于4小时和14分钟前的17:17 UTC
预报有效从18日的 18点(UTC)到 19日的 24点(UTC)
风速5节,风向多变
能见度10公里或以上
少量云层高于4000英尺
从 18日的 2200点(UTC)
风速7节,风向北转东北
能见度10公里或以上
1500米以下无云,无积雨云
从 19日的 0200点(UTC)
风速8节,风向北转西北
能见度10公里或以上
少量云层高于4000英尺
从 19日的 0900点(UTC)
风速5节,风向东北
能见度10公里或以上
散云层高于4000英尺

TAF: YPAD 181717Z 1818/1924 VRB05KT 9999 FEW040 FM182200 03007KT CAVOK FM190200 33008KT 9999 FEW040 FM190900 04005KT 9999 SCT040

超过4000个机场的气象观测和天气预报(METAR&TAF报告)。

可查询的气象台以黄色和红色小点在地图上表示。

将鼠标移到小点上方,可查看气象台名称。

然后点击查看天气观测和预报。

如需切换地图:点击带黑十字的绿色按钮放大地图;点击带横线的绿色按钮缩小地图;或者点击绿色箭头查看邻近地区的地图。


METAR-TAF: